Time;durP1;ratioP1;P1;durP2;ratioP2;P2;SDS_P1;SDS_P2;PMS_P1;PMS_P2;Temp;Humidity;BMP_temperature;BMP_pressure;BME280_temperature;BME280_humidity;BME280_pressure;Samples;Min_cycle;Max_cycle;Signal;HPM_P1;HPM_P2
2022/09/30 00:01:56;;;;;;;;;;;12.60;69.40;;;7.95;100.00;94592.66;4970709;28;19910;-47
2022/09/30 00:04:24;;;;;;;;;;;12.60;69.40;;;7.98;100.00;94588.66;4974707;28;20281;-47
2022/09/30 00:06:53;;;;;;;;;;;12.60;69.30;;;8.02;100.00;94595.00;4987000;28;20013;-48
2022/09/30 00:09:20;;;;;;;;;;;12.70;69.40;;;8.06;100.00;94596.88;4986708;28;20285;-49
2022/09/30 00:11:49;;;;;;;;;;;12.70;69.30;;;8.09;100.00;94592.88;5002052;28;19910;-47
2022/09/30 00:14:27;;;;;;;;;;;12.70;69.40;;;8.13;100.00;94596.56;5000739;28;19909;-47
2022/09/30 00:16:56;;;;;;;;;;;12.80;69.40;;;8.15;100.00;94604.22;4998807;28;20014;-47
2022/09/30 00:19:26;;;;;;;;;;;12.80;69.40;;;8.18;100.00;94601.84;4972246;28;19950;-50
2022/09/30 00:21:51;;;;;;;;;;;12.80;69.40;;;8.20;100.00;94604.22;4991351;28;19913;-46
2022/09/30 00:24:20;;;;;;;;;;;12.90;69.40;;;8.22;100.00;94602.09;4991835;28;19920;-47
2022/09/30 00:26:52;;;;;;;;;;;12.90;69.40;;;8.27;100.00;94602.88;4990602;28;19909;-48
2022/09/30 00:29:18;;;;;;;;;;;12.90;69.30;;;8.30;100.00;94602.31;5005455;28;20377;-47
2022/09/30 00:31:44;;;;;;;;;;;12.90;69.30;;;8.29;100.00;94610.53;4979934;28;19920;-49
2022/09/30 00:34:11;;;;;;;;;;;13.00;69.30;;;8.29;100.00;94613.19;4966819;28;19914;-47
2022/09/30 00:36:44;;;;;;;;;;;13.00;69.40;;;8.30;100.00;94607.63;4984574;28;19956;-47
2022/09/30 00:39:28;;;;;;;;;;;13.00;69.30;;;8.28;100.00;94612.41;4990942;28;19917;-46
2022/09/30 00:42:05;;;;;;;;;;;13.00;69.30;;;8.29;100.00;94615.84;4991385;28;19917;-48
2022/09/30 00:44:53;;;;;;;;;;;13.00;69.30;;;8.30;100.00;94623.56;4991123;28;19936;-47
2022/09/30 00:47:53;;;;;;;;;;;13.00;69.40;;;8.31;100.00;94619.03;5000218;28;19936;-49
2022/09/30 00:50:46;;;;;;;;;;;13.00;70.10;;;8.33;100.00;94622.19;5006106;28;19916;-48
2022/09/30 00:53:33;;;;;;;;;;;13.00;69.40;;;8.33;100.00;94611.56;5000461;28;20394;-51
2022/09/30 00:56:28;;;;;;;;;;;13.00;69.40;;;8.35;100.00;94620.84;5000844;28;20371;-47
2022/09/30 00:59:07;;;;;;;;;;;13.00;69.40;;;8.35;100.00;94617.41;5000063;28;19914;-47
2022/09/30 01:01:41;;;;;;;;;;;13.00;69.50;;;8.33;100.00;94611.56;4978922;28;19916;-47
2022/09/30 01:04:28;;;;;;;;;;;13.00;69.50;;;8.27;100.00;94618.78;4988694;28;20358;-49
2022/09/30 01:06:54;;;;;;;;;;;13.00;69.50;;;8.26;100.00;94621.69;5006146;28;19909;-48
2022/09/30 01:09:20;;;;;;;;;;;13.00;69.50;;;8.27;100.00;94628.59;5005905;28;20398;-50
2022/09/30 01:11:48;;;;;;;;;;;12.90;69.50;;;8.30;100.00;94628.84;5002225;28;19955;-47
2022/09/30 01:14:22;;;;;;;;;;;12.90;69.50;;;8.31;100.00;94630.44;4987746;28;20368;-50
2022/09/30 01:17:28;;;;;;;;;;;13.00;69.60;;;8.32;100.00;94626.72;5002146;28;20368;-47
2022/09/30 01:20:20;;;;;;;;;;;13.00;69.60;;;8.32;100.00;94625.91;4969348;28;19914;-46
2022/09/30 01:23:36;;;;;;;;;;;13.00;69.60;;;8.33;100.00;94627.50;4982620;28;20012;-47
2022/09/30 01:26:35;;;;;;;;;;;13.00;69.60;;;8.33;100.00;94630.16;4979081;28;19909;-47
2022/09/30 01:29:22;;;;;;;;;;;13.00;69.60;;;8.35;100.00;94633.34;5003085;28;19978;-47
2022/09/30 01:32:31;;;;;;;;;;;13.00;69.70;;;8.36;100.00;94637.56;4978474;28;19986;-47
2022/09/30 01:35:38;;;;;;;;;;;13.00;69.70;;;8.32;100.00;94633.88;4987298;28;20372;-50
2022/09/30 01:38:55;;;;;;;;;;;13.00;69.80;;;8.31;100.00;94634.97;4996653;28;20494;-47
2022/09/30 01:41:53;;;;;;;;;;;12.90;69.80;;;8.33;100.00;94638.09;4958820;28;19914;-47
2022/09/30 01:44:57;;;;;;;;;;;12.90;69.80;;;8.33;100.00;94630.94;4971637;28;19933;-47
2022/09/30 01:47:30;;;;;;;;;;;13.00;69.90;;;8.34;100.00;94632.53;4997857;28;19917;-47
2022/09/30 01:50:40;;;;;;;;;;;13.00;69.90;;;8.37;100.00;94627.75;5004838;28;19913;-48
2022/09/30 01:54:05;;;;;;;;;;;12.90;69.90;;;8.35;100.00;94631.47;4996580;28;20264;-47
2022/09/30 01:57:13;;;;;;;;;;;13.00;69.90;;;8.37;100.00;94636.53;4984060;28;19976;-48
2022/09/30 02:00:01;;;;;;;;;;;12.90;69.90;;;8.40;100.00;94640.50;4961419;28;20338;-47
2022/09/30 02:02:34;;;;;;;;;;;12.90;69.90;;;8.40;100.00;94635.19;4991809;28;19946;-47
2022/09/30 02:05:10;;;;;;;;;;;13.00;70.00;;;8.38;100.00;94632.81;5001115;28;19909;-47
2022/09/30 02:07:53;;;;;;;;;;;13.00;69.90;;;8.41;100.00;94637.59;4990271;28;19956;-47
2022/09/30 02:10:39;;;;;;;;;;;13.00;70.00;;;8.39;100.00;94639.72;4980352;28;19909;-47
2022/09/30 02:13:29;;;;;;;;;;;13.00;69.90;;;8.39;100.00;94641.56;5009114;28;19937;-48
2022/09/30 02:16:11;;;;;;;;;;;13.10;69.90;;;8.41;100.00;94639.44;5006599;28;19913;-50
2022/09/30 02:19:14;;;;;;;;;;;13.10;69.90;;;8.39;100.00;94637.06;4992191;28;19917;-48
2022/09/30 02:21:46;;;;;;;;;;;13.10;69.80;;;8.41;100.00;94640.22;4963933;28;19963;-46
2022/09/30 02:24:18;;;;;;;;;;;13.10;69.80;;;8.43;100.00;94642.59;4993065;28;19909;-48
2022/09/30 02:26:48;;;;;;;;;;;13.10;69.80;;;8.41;100.00;94642.88;4976668;28;19909;-47
2022/09/30 02:29:33;;;;;;;;;;;13.20;69.80;;;8.42;100.00;94641.03;4999022;28;20416;-48
2022/09/30 02:32:14;;;;;;;;;;;13.20;69.80;;;8.44;100.00;94649.50;4997157;28;19918;-45
2022/09/30 02:34:56;;;;;;;;;;;13.20;69.70;;;8.44;100.00;94650.31;4976171;28;20016;-45
2022/09/30 02:38:04;;;;;;;;;;;13.20;69.80;;;8.43;100.00;94650.56;4992488;28;19916;-45
2022/09/30 02:40:34;;;;;;;;;;;13.20;69.70;;;8.44;100.00;94652.16;4992021;28;19920;-46
2022/09/30 02:43:05;;;;;;;;;;;13.20;69.70;;;8.47;100.00;94654.28;4978138;28;20292;-45
2022/09/30 02:45:45;;;;;;;;;;;13.20;69.70;;;8.43;100.00;94648.72;4972639;28;20284;-48
2022/09/30 02:48:53;;;;;;;;;;;13.20;69.70;;;8.43;100.00;94650.56;5002855;28;19909;-50
2022/09/30 02:52:05;;;;;;;;;;;13.20;69.70;;;8.42;100.00;94649.78;4986700;28;19914;-48
2022/09/30 02:54:58;;;;;;;;;;;13.20;69.70;;;8.42;100.00;94644.47;5005036;28;19924;-45
2022/09/30 02:57:59;;;;;;;;;;;13.10;69.70;;;8.39;100.00;94652.19;4989086;28;19918;-50
2022/09/30 03:00:26;;;;;;;;;;;13.10;69.80;;;8.38;100.00;94662.00;4992914;28;19914;-45
2022/09/30 03:03:07;;;;;;;;;;;13.00;69.80;;;8.38;100.00;94658.53;4989220;28;19910;-46
2022/09/30 03:05:33;;;;;;;;;;;13.00;70.60;;;8.40;100.00;94659.06;4989232;28;19913;-48
2022/09/30 03:08:00;;;;;;;;;;;13.00;69.90;;;8.38;100.00;94656.69;5007337;28;20316;-49
2022/09/30 03:10:36;;;;;;;;;;;13.00;69.90;;;8.38;100.00;94663.84;4991311;28;19909;-45
2022/09/30 03:13:42;;;;;;;;;;;13.00;69.90;;;8.38;100.00;94658.53;4975852;28;20375;-44
2022/09/30 03:16:44;;;;;;;;;;;13.00;70.00;;;8.37;100.00;94665.72;4920162;28;19917;-45
2022/09/30 03:19:44;;;;;;;;;;;13.00;70.10;;;8.37;100.00;94668.38;4990851;28;19952;-46
2022/09/30 03:22:30;;;;;;;;;;;13.00;70.20;;;8.38;100.00;94674.47;4989768;28;19913;-47
2022/09/30 03:24:59;;;;;;;;;;;13.00;70.10;;;8.36;100.00;94677.38;4973143;28;19956;-45
2022/09/30 03:27:34;;;;;;;;;;;13.00;70.20;;;8.32;100.00;94676.34;4987726;28;19944;-46
2022/09/30 03:30:06;;;;;;;;;;;13.00;70.00;;;8.34;100.00;94684.81;4979694;28;19944;-44
2022/09/30 03:32:56;;;;;;;;;;;13.00;70.10;;;8.36;100.00;94687.97;4998954;28;19918;-45
2022/09/30 03:35:42;;;;;;;;;;;13.00;70.10;;;8.38;100.00;94688.53;4979365;28;20032;-46
2022/09/30 03:38:22;;;;;;;;;;;13.00;70.10;;;8.31;100.00;94688.81;5007787;28;19910;-53
2022/09/30 03:41:49;;;;;;;;;;;13.00;70.10;;;8.32;100.00;94687.75;5005490;28;19920;-46
2022/09/30 03:44:55;;;;;;;;;;;13.00;70.10;;;8.31;100.00;94688.81;4979798;28;19914;-47
2022/09/30 03:47:25;;;;;;;;;;;13.00;70.20;;;8.34;100.00;94692.78;4998146;28;20364;-51
2022/09/30 03:50:07;;;;;;;;;;;12.90;70.10;;;8.33;100.00;94691.19;5023448;28;20283;-45
2022/09/30 03:52:36;;;;;;;;;;;13.00;70.30;;;8.30;100.00;94692.53;5002115;28;20012;-51
2022/09/30 03:55:07;;;;;;;;;;;12.90;70.10;;;8.28;100.00;94689.34;4996744;28;19909;-50
2022/09/30 03:57:33;;;;;;;;;;;12.90;70.10;;;8.26;100.00;94694.13;5009024;28;19916;-52
2022/09/30 04:00:04;;;;;;;;;;;12.90;70.10;;;8.26;100.00;94686.16;5000051;28;19913;-45
2022/09/30 04:02:35;;;;;;;;;;;12.90;70.10;;;8.22;100.00;94687.00;5010534;28;19912;-46
2022/09/30 04:05:01;;;;;;;;;;;12.90;70.10;;;8.18;100.00;94684.09;5002469;28;19908;-45
2022/09/30 04:07:27;;;;;;;;;;;12.90;70.10;;;8.18;100.00;94694.72;5003669;28;20257;-50
2022/09/30 04:09:52;;;;;;;;;;;12.90;70.10;;;8.16;100.00;94691.53;5007634;28;19913;-45
2022/09/30 04:12:18;;;;;;;;;;;12.80;70.10;;;8.19;100.00;94695.50;4971147;28;19918;-47
2022/09/30 04:14:44;;;;;;;;;;;12.80;70.20;;;8.20;100.00;94695.22;4984454;28;19920;-45
2022/09/30 04:17:10;;;;;;;;;;;12.80;70.20;;;8.21;100.00;94696.00;4975240;28;20269;-48
2022/09/30 04:19:38;;;;;;;;;;;12.80;70.20;;;8.22;100.00;94694.94;4971988;28;20373;-44
2022/09/30 04:22:16;;;;;;;;;;;12.80;70.20;;;8.21;100.00;94691.50;4975414;28;19915;-47
2022/09/30 04:24:46;;;;;;;;;;;12.80;70.20;;;8.21;100.00;94698.66;4991085;28;20003;-50
2022/09/30 04:27:12;;;;;;;;;;;12.80;70.20;;;8.17;100.00;94685.13;4979055;28;19917;-45
2022/09/30 04:29:53;;;;;;;;;;;12.80;70.10;;;8.15;100.00;94691.78;5003494;28;20340;-46
2022/09/30 04:32:21;;;;;;;;;;;12.80;70.10;;;8.10;100.00;94684.63;4988748;28;20056;-46
2022/09/30 04:34:47;;;;;;;;;;;12.80;70.20;;;8.08;100.00;94694.72;5000463;28;19917;-46
2022/09/30 04:37:14;;;;;;;;;;;12.80;70.20;;;8.07;100.00;94695.78;4984784;28;20344;-47
2022/09/30 04:39:49;;;;;;;;;;;12.70;70.20;;;8.04;100.00;94694.47;4987387;28;19917;-48
2022/09/30 04:42:18;;;;;;;;;;;12.70;70.20;;;8.07;100.00;94698.44;4971133;28;19963;-46
2022/09/30 04:44:50;;;;;;;;;;;12.70;70.20;;;8.07;100.00;94707.19;4987002;28;19932;-45
2022/09/30 04:47:24;;;;;;;;;;;12.70;70.30;;;8.05;100.00;94712.00;4985111;28;20020;-47
2022/09/30 04:49:49;;;;;;;;;;;12.70;70.30;;;8.02;100.00;94719.66;4991518;28;19910;-53
2022/09/30 04:52:21;;;;;;;;;;;12.70;70.30;;;8.00;100.00;94719.94;5002245;28;19940;-45
2022/09/30 04:54:50;;;;;;;;;;;12.60;70.30;;;8.04;100.00;94726.28;4984420;28;19916;-45
2022/09/30 04:57:16;;;;;;;;;;;12.60;70.40;;;8.05;100.00;94733.22;4971596;28;19910;-45
2022/09/30 04:59:45;;;;;;;;;;;12.60;70.40;;;8.05;100.00;94732.38;5003509;28;20356;-47
2022/09/30 05:02:12;;;;;;;;;;;12.70;70.50;;;8.05;100.00;94743.00;5004344;28;19909;-46
2022/09/30 05:04:41;;;;;;;;;;;12.70;70.50;;;8.05;100.00;94738.50;4988861;28;19936;-45
2022/09/30 05:07:07;;;;;;;;;;;12.60;70.50;;;8.05;100.00;94735.84;5005914;28;19909;-47
2022/09/30 05:09:36;;;;;;;;;;;12.60;70.50;;;8.06;100.00;94745.41;4990090;28;19916;-49
2022/09/30 05:12:03;;;;;;;;;;;12.60;70.60;;;8.07;100.00;94743.53;4984262;28;20012;-45
2022/09/30 05:14:29;;;;;;;;;;;12.60;70.60;;;8.09;100.00;94741.41;4986705;28;20012;-49
2022/09/30 05:16:55;;;;;;;;;;;12.60;70.60;;;8.10;100.00;94745.66;5001309;28;19910;-45
2022/09/30 05:19:21;;;;;;;;;;;12.70;70.60;;;8.13;100.00;94746.97;4983559;28;19924;-45
2022/09/30 05:21:51;;;;;;;;;;;12.70;70.60;;;8.14;100.00;94748.56;4988608;28;19909;-45
2022/09/30 05:24:19;;;;;;;;;;;12.70;70.70;;;8.14;100.00;94753.84;4989934;28;20277;-52
2022/09/30 05:26:45;;;;;;;;;;;12.70;70.60;;;8.10;100.00;94761.56;4989782;28;19909;-45
2022/09/30 05:29:17;;;;;;;;;;;12.70;70.60;;;8.11;100.00;94757.84;4988585;28;19909;-47
2022/09/30 05:31:55;;;;;;;;;;;12.70;70.70;;;8.13;100.00;94765.53;4974258;28;20016;-45
2022/09/30 05:34:24;;;;;;;;;;;12.70;70.60;;;8.14;100.00;94765.25;4990618;28;19915;-46
2022/09/30 05:36:50;;;;;;;;;;;12.70;70.60;;;8.17;100.00;94766.59;4989965;28;19910;-53
2022/09/30 05:39:23;;;;;;;;;;;12.70;70.70;;;8.16;100.00;94763.16;4996695;28;19943;-44
2022/09/30 05:41:49;;;;;;;;;;;12.70;70.70;;;8.18;100.00;94762.84;5007171;28;20008;-52
2022/09/30 05:44:15;;;;;;;;;;;12.80;70.70;;;8.16;100.00;94776.41;4977500;28;20369;-49
2022/09/30 05:46:42;;;;;;;;;;;12.70;70.70;;;8.16;100.00;94779.06;4951943;28;21673;-46
2022/09/30 05:49:08;;;;;;;;;;;12.80;70.70;;;8.20;100.00;94781.97;4965011;28;19917;-47
2022/09/30 05:51:35;;;;;;;;;;;12.80;70.70;;;8.21;100.00;94775.59;4988421;28;20463;-48
2022/09/30 05:54:01;;;;;;;;;;;12.80;70.70;;;8.26;100.00;94783.56;4992978;28;19916;-49
2022/09/30 05:56:26;;;;;;;;;;;12.80;70.70;;;8.28;100.00;94786.75;4993177;28;20284;-47
2022/09/30 05:58:53;;;;;;;;;;;12.90;70.70;;;8.34;100.00;94789.09;4986743;28;20336;-46
2022/09/30 06:01:18;;;;;;;;;;;12.90;70.60;;;8.38;100.00;94784.09;4993146;28;19917;-45
2022/09/30 06:03:46;;;;;;;;;;;13.00;70.70;;;8.39;100.00;94790.19;4993461;28;20372;-45
2022/09/30 06:06:14;;;;;;;;;;;13.00;70.60;;;8.41;100.00;94798.69;4992685;28;19910;-45
2022/09/30 06:08:42;;;;;;;;;;;13.10;70.60;;;8.40;100.00;94800.53;4992720;28;19914;-46
2022/09/30 06:11:17;;;;;;;;;;;13.10;70.50;;;8.45;100.00;94805.81;4994127;28;19947;-46
2022/09/30 06:13:46;;;;;;;;;;;13.10;70.40;;;8.44;100.00;94811.41;4992795;28;19992;-45
2022/09/30 06:16:12;;;;;;;;;;;13.20;70.50;;;8.46;100.00;94803.94;4975885;28;19952;-45
2022/09/30 06:18:41;;;;;;;;;;;13.20;70.40;;;8.41;100.00;94809.28;5007772;28;20016;-47
2022/09/30 06:21:14;;;;;;;;;;;13.20;70.30;;;8.48;100.00;94813.25;4992583;28;19945;-45
2022/09/30 06:23:43;;;;;;;;;;;13.20;71.00;;;8.53;100.00;94815.09;4992723;28;19965;-46
2022/09/30 06:26:13;;;;;;;;;;;13.30;70.30;;;8.54;100.00;94822.78;4992741;28;20342;-45
2022/09/30 06:28:39;;;;;;;;;;;13.30;70.20;;;8.51;100.00;94815.34;5004151;28;20427;-45
2022/09/30 06:31:06;;;;;;;;;;;13.40;70.30;;;8.52;100.00;94819.63;5007546;28;19914;-47
2022/09/30 06:33:33;;;;;;;;;;;13.30;70.10;;;8.52;100.00;94821.47;4991986;28;20019;-48
2022/09/30 06:36:03;;;;;;;;;;;13.40;70.10;;;8.60;100.00;94828.09;5006403;28;20408;-45
2022/09/30 06:38:30;;;;;;;;;;;13.40;70.10;;;8.63;100.00;94825.69;4988826;28;19916;-49
2022/09/30 06:40:59;;;;;;;;;;;13.50;70.10;;;8.68;100.00;94824.84;4981023;28;20016;-45
2022/09/30 06:43:25;;;;;;;;;;;13.50;70.00;;;8.69;100.00;94826.47;4988171;28;19941;-47
2022/09/30 06:45:51;;;;;;;;;;;13.60;70.00;;;8.77;100.00;94837.34;5003005;28;19938;-45
2022/09/30 06:48:17;;;;;;;;;;;13.60;70.00;;;8.83;100.00;94832.78;4993560;28;19910;-45
2022/09/30 06:50:44;;;;;;;;;;;13.60;70.00;;;8.83;100.00;94842.59;5008489;28;20376;-46
2022/09/30 06:53:13;;;;;;;;;;;13.70;70.00;;;8.79;100.00;94837.84;5003833;28;19913;-48
2022/09/30 06:55:42;;;;;;;;;;;13.70;69.90;;;8.83;100.00;94838.09;5006352;28;19983;-47
2022/09/30 06:58:17;;;;;;;;;;;13.80;69.90;;;8.92;100.00;94841.78;4990802;28;19957;-48
2022/09/30 07:00:54;;;;;;;;;;;13.80;69.90;;;9.02;100.00;94844.41;4999887;28;19963;-45
2022/09/30 07:03:28;;;;;;;;;;;13.90;69.90;;;9.06;100.00;94843.84;4976990;28;19909;-49
2022/09/30 07:06:05;;;;;;;;;;;13.90;69.80;;;9.07;99.88;94845.44;5007156;28;20360;-46
2022/09/30 07:08:55;;;;;;;;;;;14.00;69.80;;;9.07;99.84;94845.44;4976318;28;19945;-45
2022/09/30 07:11:22;;;;;;;;;;;14.00;69.60;;;9.11;100.00;94843.81;4999643;28;19948;-46
2022/09/30 07:13:48;;;;;;;;;;;14.10;69.60;;;9.16;99.73;94844.59;4972960;28;19952;-46
2022/09/30 07:16:20;;;;;;;;;;;14.10;69.60;;;9.20;99.60;94848.28;4976766;28;19952;-45
2022/09/30 07:18:52;;;;;;;;;;;14.10;69.50;;;9.27;99.64;94851.47;4988334;28;19910;-45
2022/09/30 07:21:21;;;;;;;;;;;14.20;69.50;;;9.36;99.35;94848.22;4988236;28;19917;-47
2022/09/30 07:23:47;;;;;;;;;;;14.20;69.50;;;9.44;99.21;94845.78;5005727;28;19915;-45
2022/09/30 07:26:20;;;;;;;;;;;14.40;69.50;;;9.47;98.23;94841.78;4970567;28;19917;-46
2022/09/30 07:28:47;;;;;;;;;;;14.40;69.30;;;9.40;97.54;94839.44;4990572;28;19932;-48
2022/09/30 07:31:17;;;;;;;;;;;14.50;70.00;;;9.44;97.30;94837.81;5006704;28;19932;-48
2022/09/30 07:33:44;;;;;;;;;;;14.70;69.10;;;9.50;97.18;94841.25;4989647;28;19956;-49
2022/09/30 07:36:12;;;;;;;;;;;14.70;68.90;;;9.58;96.92;94840.66;4992420;28;19913;-48
2022/09/30 07:38:41;;;;;;;;;;;14.80;68.70;;;9.62;96.59;94841.69;4990598;28;19979;-45
2022/09/30 07:41:14;;;;;;;;;;;14.90;68.70;;;9.72;96.13;94851.47;5006414;28;19920;-45
2022/09/30 07:43:47;;;;;;;;;;;15.00;68.60;;;9.76;95.39;94851.72;4991812;28;19917;-45
2022/09/30 07:46:28;;;;;;;;;;;15.10;68.50;;;9.81;94.96;94873.75;4990573;28;20004;-47
2022/09/30 07:48:59;;;;;;;;;;;15.20;68.40;;;9.89;95.00;94867.03;4974392;28;19920;-45
2022/09/30 07:51:39;;;;;;;;;;;15.20;68.30;;;9.75;93.87;94877.50;4987504;28;19910;-45
2022/09/30 07:54:15;;;;;;;;;;;15.20;68.20;;;9.82;94.27;94878.00;5006337;28;20272;-46
2022/09/30 07:56:42;;;;;;;;;;;15.20;68.10;;;9.82;93.62;94872.66;5006605;28;20296;-45
2022/09/30 07:59:11;;;;;;;;;;;15.30;68.10;;;9.87;93.08;94875.31;5000807;28;20024;-45
2022/09/30 08:01:39;;;;;;;;;;;15.30;68.00;;;9.93;92.39;94892.81;5005632;28;19945;-48
2022/09/30 08:04:09;;;;;;;;;;;15.40;67.90;;;9.88;92.49;94890.19;5006357;28;19913;-47
2022/09/30 08:06:48;;;;;;;;;;;15.50;67.70;;;10.02;92.47;94894.88;5006030;28;19975;-51
2022/09/30 08:09:18;;;;;;;;;;;15.50;67.60;;;9.95;91.73;94884.56;4987956;28;19957;-45
2022/09/30 08:11:47;;;;;;;;;;;15.60;67.50;;;10.08;91.84;94888.44;4973020;28;20178;-46
2022/09/30 08:14:21;;;;;;;;;;;15.60;67.30;;;10.14;91.33;94895.31;4971274;28;20266;-46
2022/09/30 08:16:50;;;;;;;;;;;15.70;67.30;;;10.16;91.70;94899.31;4995716;28;19910;-45
2022/09/30 08:19:23;;;;;;;;;;;15.80;67.20;;;10.29;91.53;94905.09;4990685;28;19925;-45
2022/09/30 08:21:51;;;;;;;;;;;15.80;67.10;;;10.39;91.17;94907.66;4989739;28;19914;-46
2022/09/30 08:24:17;;;;;;;;;;;15.80;67.10;;;10.48;90.42;94918.50;4979814;28;19972;-44
2022/09/30 08:26:46;;;;;;;;;;;15.90;67.10;;;10.41;89.41;94911.63;4986946;28;19910;-48
2022/09/30 08:29:13;;;;;;;;;;;15.90;67.00;;;10.54;89.25;94912.84;5010826;28;19947;-45
2022/09/30 08:34:18;;;;;;;;;;;16.10;66.80;;;10.58;87.60;94921.88;4994674;28;20020;-54
2022/09/30 08:36:49;;;;;;;;;;;16.20;66.70;;;10.58;88.17;94921.88;4990313;28;19914;-55
2022/09/30 08:39:15;;;;;;;;;;;16.30;66.40;;;10.77;89.27;94929.94;5002785;28;19943;-52
2022/09/30 08:42:00;;;;;;;;;;;16.40;66.30;;;10.70;87.02;94934.81;4989917;28;19911;-51
2022/09/30 08:44:47;;;;;;;;;;;16.50;66.10;;;10.83;87.72;94942.16;4972150;28;19914;-53
2022/09/30 08:47:32;;;;;;;;;;;16.60;66.00;;;10.95;87.86;94944.44;4981362;28;19909;-56
2022/09/30 08:50:28;;;;;;;;;;;16.70;65.90;;;11.05;86.08;94946.22;4972221;28;20438;-55
2022/09/30 08:53:04;;;;;;;;;;;16.90;65.80;;;11.25;85.71;94953.19;4989243;28;19917;-49
2022/09/30 08:55:42;;;;;;;;;;;17.10;65.60;;;11.22;83.42;94959.06;4973975;28;19920;-56
2022/09/30 08:58:30;;;;;;;;;;;17.20;65.30;;;11.23;84.54;94956.16;4969460;28;20364;-54
2022/09/30 09:01:24;;;;;;;;;;;17.30;65.00;;;11.20;82.71;94962.03;4989643;28;19967;-55
2022/09/30 09:03:50;;;;;;;;;;;17.30;65.50;;;11.25;83.64;94953.19;4960229;28;19913;-54
2022/09/30 09:06:40;;;;;;;;;;;17.30;64.50;;;11.33;83.82;94963.22;4982339;28;20362;-51
2022/09/30 09:09:39;;;;;;;;;;;17.30;64.40;;;11.49;83.17;94961.19;4990575;28;20312;-56
2022/09/30 09:13:27;;;;;;;;;;;17.50;64.40;;;11.59;82.89;94974.38;4963793;28;19913;-56
2022/09/30 09:16:13;;;;;;;;;;;17.50;64.10;;;11.70;81.35;94973.19;4909240;29;19930;-52
2022/09/30 09:18:47;;;;;;;;;;;17.70;64.00;;;11.71;82.14;94982.00;4894127;29;20572;-56
2022/09/30 09:21:43;;;;;;;;;;;17.80;63.90;;;11.84;82.12;94983.94;4973674;28;19941;-57
2022/09/30 09:24:27;;;;;;;;;;;17.80;63.70;;;11.94;80.07;94985.72;4989639;28;20495;-56
2022/09/30 09:26:56;;;;;;;;;;;17.90;63.60;;;12.04;80.55;94988.28;4989503;28;20000;-56
2022/09/30 09:29:52;;;;;;;;;;;18.00;63.50;;;12.07;80.26;94993.03;4972664;28;20334;-55
2022/09/30 09:32:19;;;;;;;;;;;18.00;63.40;;;12.09;80.18;94995.41;4973209;28;19944;-57
2022/09/30 09:34:54;;;;;;;;;;;18.00;63.30;;;12.01;79.79;94999.53;4982143;28;19909;-52
2022/09/30 09:40:57;;;;;;;;;;;17.90;63.00;;;11.90;79.87;94998.84;4965524;28;19920;-51
2022/09/30 09:44:02;;;;;;;;;;;17.80;63.00;;;11.99;80.64;94999.81;4971914;28;20411;-51
2022/09/30 09:46:58;;;;;;;;;;;17.80;62.90;;;12.13;79.80;95004.44;4962021;28;19960;-54
2022/09/30 09:49:34;;;;;;;;;;;17.90;62.80;;;12.27;79.15;95003.41;4975137;28;19913;-52
2022/09/30 09:52:12;;;;;;;;;;;18.00;62.90;;;12.30;79.10;95010.06;4963402;28;19913;-52
2022/09/30 09:54:43;;;;;;;;;;;18.10;62.80;;;12.26;79.70;95011.75;4987479;28;20364;-56
2022/09/30 09:57:14;;;;;;;;;;;18.20;62.80;;;12.35;80.23;95012.69;4972554;28;19917;-54
2022/09/30 10:01:10;;;;;;;;;;;18.20;62.60;;;12.42;78.92;95012.31;4985220;28;19925;-53
2022/09/30 10:03:11;;;;;;;;;;;18.20;62.50;;;12.50;78.50;95017.81;4980630;28;19910;-54
2022/09/30 10:05:40;;;;;;;;;;;18.30;62.50;;;12.55;77.67;95011.56;4981596;28;19948;-50
2022/09/30 10:08:20;;;;;;;;;;;18.30;62.30;;;12.52;77.35;95006.03;4967050;28;19909;-53
2022/09/30 10:10:56;;;;;;;;;;;18.50;62.10;;;12.56;77.59;95015.81;4989904;28;20438;-56
2022/09/30 10:13:31;;;;;;;;;;;18.60;61.80;;;12.67;77.26;95014.59;4975747;28;19916;-53
2022/09/30 10:16:01;;;;;;;;;;;18.80;61.70;;;12.73;75.57;95012.66;4962302;28;19988;-53
2022/09/30 10:18:40;;;;;;;;;;;18.90;61.30;;;12.83;75.73;95012.47;4973835;28;20284;-53
2022/09/30 10:21:27;;;;;;;;;;;19.20;60.90;;;13.00;74.18;95022.59;4960390;28;19913;-52
2022/09/30 10:23:54;;;;;;;;;;;19.50;60.40;;;13.19;74.36;95023.38;4959544;28;19937;-55
2022/09/30 10:26:24;;;;;;;;;;;19.80;60.10;;;13.34;74.03;95013.50;4959259;28;19921;-52
2022/09/30 10:28:54;;;;;;;;;;;20.00;59.80;;;13.57;73.72;95020.56;4965288;28;19936;-50
2022/09/30 10:31:41;;;;;;;;;;;20.20;59.70;;;13.55;71.39;95021.97;4976264;28;20016;-51
2022/09/30 10:34:33;;;;;;;;;;;20.30;59.40;;;13.94;70.63;95024.13;4974875;28;20383;-55
2022/09/30 10:37:16;;;;;;;;;;;20.80;59.20;;;14.13;68.94;95029.34;4959725;28;20050;-51
2022/09/30 10:39:49;;;;;;;;;;;21.20;58.90;;;14.14;66.96;95022.13;4976223;28;19913;-52
2022/09/30 10:42:22;;;;;;;;;;;21.40;58.50;;;14.18;68.70;95018.53;4978812;28;20288;-51
2022/09/30 10:45:09;;;;;;;;;;;21.50;58.20;;;14.18;68.20;95023.91;4957535;28;19910;-53
2022/09/30 10:47:47;;;;;;;;;;;21.40;58.00;;;13.93;67.73;95027.91;4981473;28;19914;-51
2022/09/30 10:50:25;;;;;;;;;;;21.20;57.80;;;13.76;68.26;95030.41;4957199;28;19917;-50
2022/09/30 10:53:23;;;;;;;;;;;21.00;57.70;;;13.53;70.01;95032.16;4991561;28;20094;-51
2022/09/30 10:55:53;;;;;;;;;;;20.80;57.70;;;13.75;68.61;95034.16;4974114;28;19917;-54
2022/09/30 10:58:29;;;;;;;;;;;20.70;57.70;;;13.85;69.55;95033.94;4974915;28;20674;-52
2022/09/30 11:01:32;;;;;;;;;;;20.70;57.70;;;14.02;68.89;95039.50;4973630;28;19954;-55
2022/09/30 11:04:14;;;;;;;;;;;20.80;57.80;;;13.89;66.96;95035.75;4974317;28;19941;-54
2022/09/30 11:06:46;;;;;;;;;;;20.70;57.90;;;13.44;64.47;95048.09;4980172;28;19913;-55
2022/09/30 11:09:47;;;;;;;;;;;20.60;57.80;;;13.29;66.90;95056.41;4953354;28;20439;-56
2022/09/30 11:12:33;;;;;;;;;;;20.40;57.70;;;13.69;66.25;95059.41;4975507;28;20020;-53
2022/09/30 11:15:23;;;;;;;;;;;20.30;57.70;;;13.65;66.04;95054.66;4988031;28;19914;-56
2022/09/30 11:18:01;;;;;;;;;;;20.40;57.70;;;13.88;64.83;95062.78;4972702;28;20284;-56
2022/09/30 11:20:37;;;;;;;;;;;20.40;57.70;;;14.14;63.97;95063.09;4981121;28;20296;-52
2022/09/30 11:23:26;;;;;;;;;;;20.50;57.70;;;14.28;65.44;95063.06;4957548;28;20368;-55
2022/09/30 11:26:18;;;;;;;;;;;20.60;57.50;;;14.38;64.08;95057.47;4967574;28;19910;-52
2022/09/30 11:28:52;;;;;;;;;;;20.70;57.30;;;14.44;64.03;95067.00;4930613;28;19960;-51
2022/09/30 11:32:05;;;;;;;;;;;20.90;57.20;;;14.52;62.17;95070.91;4962820;28;19910;-51
2022/09/30 11:35:22;;;;;;;;;;;21.00;57.00;;;14.72;63.73;95064.28;4985814;28;20004;-51
2022/09/30 11:38:51;;;;;;;;;;;21.00;56.80;;;14.68;66.55;95063.31;4933759;28;20340;-57
2022/09/30 11:41:31;;;;;;;;;;;21.10;56.70;;;14.81;66.29;95065.94;4979860;28;19914;-52
2022/09/30 11:44:31;;;;;;;;;;;21.10;56.70;;;14.87;65.50;95065.84;4973026;28;19909;-57
2022/09/30 11:47:19;;;;;;;;;;;21.10;56.70;;;14.92;65.93;95060.34;4988769;28;19916;-53
2022/09/30 11:50:16;;;;;;;;;;;21.10;56.80;;;14.88;65.28;95068.19;4990519;28;19909;-53
2022/09/30 11:52:57;;;;;;;;;;;21.10;56.60;;;14.51;65.71;95063.97;4989670;28;19943;-50
2022/09/30 11:56:16;;;;;;;;;;;21.10;56.40;;;14.69;64.93;95071.03;4955775;28;20010;-57
2022/09/30 11:58:50;;;;;;;;;;;21.20;56.30;;;14.74;63.73;95062.88;4980720;28;19928;-56
2022/09/30 12:01:33;;;;;;;;;;;21.40;56.20;;;14.67;62.27;95067.88;4973004;28;19991;-56
2022/09/30 12:04:08;;;;;;;;;;;21.40;56.00;;;14.45;62.05;95060.56;4955351;28;19917;-52
2022/09/30 12:06:51;;;;;;;;;;;21.40;55.90;;;14.15;63.18;95062.00;4956377;28;19918;-54
2022/09/30 12:09:39;;;;;;;;;;;21.20;55.70;;;13.78;64.57;95057.63;4984252;28;20048;-55
2022/09/30 12:12:19;;;;;;;;;;;21.00;55.60;;;14.11;64.35;95056.44;4969896;28;19964;-54
2022/09/30 12:14:46;;;;;;;;;;;21.00;55.70;;;14.17;64.07;95054.47;4971844;28;19914;-49